Airfield :
LOGIN :

Register | Disclaimer

   EN    FR    IT 

 










Legend :    VFR   Marginal VFR   IFR   Intensive IFR   Very Intensive IFR
Visi :
Ceiling :
>= 8 km
>= 3000ft
5 to 8 km
1000 to 3000 ft
1500m to 5 km
500 to 1000 ft
800 to 1500m
200 to 500 ft
< 800m
< 200 ft
Symbols :   Thunderstorms  Fog  Heavy snow  Heavy precipitations  Wind > 20 kt
SIGMETs :     Misc.  Thunderstorms  Icing  Turbulence  Mountain Waves  Volcanic Ashes







- Airport Elevation : 1079 ft


ETIK - Illesheim Air Base

CURRENT METAR :
  • 231358Z AUTO 26006KT 9999 FEW060 SCT075 SCT190 25/12 A3007 RMK AO2 SLPNO T02450116

EXPIRED METARs :
  • 231258Z AUTO 24011G15KT 9999 SCT065 SCT150 25/12 A3007 RMK AO2 SLPNO T02450118
  • 231158Z AUTO 27005KT 9999 FEW130 23/12 A3007 RMK AO2 SLPNO T02330118 10235 20129

TAF TAF ETIK
Valid from the 23 at 13:00 until the 24 at 19:00 UTC


231303Z 2313/2419 25010G15KT 9999 FEW060 SCT150 QNH3004INS
BECMG 2320/2321 29012G20KT 9999 BKN050 QNH3008INS
BECMG 2400/2401 29012G18KT 9999 SCT030 QNH3009INS
BECMG 2410/2411 30012G20KT 9999 BKN040 QNH3016INS
BECMG 2416/2417 33012G18KT 9999 SCT040 QNH3015INS TX26/2314Z TN11/2404Z
No reported NOTAMs for that airfield.



MET'MAP, your aeronautical weather chart ! - Copyright ORBIFLY December 2007 - Disclaimer

ORBIFLY MET'MAP TEAM :

Programming & Development : Alexandra Zaïnal
Concept & Development : Baudouin d'Aumeries
Co-Development & Prog : Marc-Olivier Méhu
Technical & hardware support : Manuel Goepfert

Contact : metmap@orbifly.com




SOURCES & CREDITS :

   NOAA